Time;durP1;ratioP1;P1;durP2;ratioP2;P2;SDS_P1;SDS_P2;PMS_P1;PMS_P2;Temp;Humidity;BMP_temperature;BMP_pressure;BME280_temperature;BME280_humidity;BME280_pressure;Samples;Min_cycle;Max_cycle;Signal;HPM_P1;HPM_P2
2021/04/03 00:01:04;;;;;;;6.55;3.70;;;;;;;16.03;50.96;99047.34;1718498;80;21398;-64
2021/04/03 00:03:32;;;;;;;5.00;4.05;;;;;;;16.03;50.93;99049.18;1714168;80;21174;-64
2021/04/03 00:06:01;;;;;;;5.30;4.50;;;;;;;16.01;50.93;99045.90;1728305;80;21183;-65
2021/04/03 00:08:29;;;;;;;4.75;4.00;;;;;;;16.00;50.95;99045.62;1713732;80;21236;-65
2021/04/03 00:11:05;;;;;;;5.05;4.22;;;;;;;15.99;50.94;99045.30;1717205;80;21191;-65
2021/04/03 00:13:39;;;;;;;5.87;4.20;;;;;;;15.98;50.97;99048.51;1722547;80;21209;-65
2021/04/03 00:16:10;;;;;;;5.42;4.37;;;;;;;15.96;50.90;99046.58;1733239;82;21240;-65
2021/04/03 00:18:37;;;;;;;4.90;4.40;;;;;;;15.96;50.89;99047.10;1718231;82;21182;-64
2021/04/03 00:21:05;;;;;;;5.65;4.47;;;;;;;15.94;50.89;99047.31;1724719;82;21434;-64
2021/04/03 00:23:33;;;;;;;5.58;4.25;;;;;;;15.94;50.86;99051.33;1724870;82;21592;-64
2021/04/03 00:26:02;;;;;;;5.30;4.72;;;;;;;15.94;50.87;99053.20;1719489;82;21472;-65
2021/04/03 00:28:31;;;;;;;5.47;4.75;;;;;;;15.92;50.86;99050.20;1711942;82;21193;-64
2021/04/03 00:30:58;;;;;;;5.53;4.28;;;;;;;15.91;50.85;99053.91;1716847;82;21145;-64
2021/04/03 00:33:26;;;;;;;4.55;3.83;;;;;;;15.89;50.81;99050.63;1728268;82;21166;-64
2021/04/03 00:35:54;;;;;;;5.92;4.45;;;;;;;15.89;50.79;99046.61;1715768;82;21099;-64
2021/04/03 00:38:21;;;;;;;5.22;4.00;;;;;;;15.88;50.80;99044.99;1720330;82;22190;-64
2021/04/03 00:40:50;;;;;;;4.58;3.77;;;;;;;15.87;50.77;99044.68;1727297;82;21217;-63
2021/04/03 00:43:24;;;;;;;5.05;3.83;;;;;;;15.87;50.76;99046.55;1724415;82;21214;-64
2021/04/03 00:45:54;;;;;;;5.35;4.33;;;;;;;15.87;50.76;99051.91;1721472;82;21115;-65
2021/04/03 00:48:22;;;;;;;4.42;3.67;;;;;;;15.85;50.74;99046.76;1732144;82;21195;-64
2021/04/03 00:50:56;;;;;;;6.08;3.92;;;;;;;15.84;50.75;99046.47;1712605;82;21202;-64
2021/04/03 00:53:25;;;;;;;5.53;4.37;;;;;;;15.84;50.70;99052.33;1720783;82;21125;-64
2021/04/03 00:56:06;;;;;;;6.80;5.30;;;;;;;15.82;50.71;99047.71;1711056;82;21142;-64
2021/04/03 00:58:34;;;;;;;5.47;4.05;;;;;;;15.81;50.70;99048.23;1734336;82;21583;-63
2021/04/03 01:01:03;;;;;;;5.00;4.17;;;;;;;15.80;50.68;99044.44;1716524;82;21214;-66
2021/04/03 01:03:34;;;;;;;4.80;3.98;;;;;;;15.78;50.71;99048.70;1720258;82;22748;-66
2021/04/03 01:06:05;;;;;;;5.28;4.37;;;;;;;15.79;50.68;99048.17;1747180;81;21186;-64
2021/04/03 01:08:34;;;;;;;4.95;4.00;;;;;;;15.78;50.66;99047.36;1726135;82;21108;-64
2021/04/03 01:11:07;;;;;;;5.28;4.28;;;;;;;15.77;50.63;99048.37;1718453;82;21293;-64
2021/04/03 01:14:08;;;;;;;4.40;4.00;;;;;;;15.76;50.61;99054.79;1740029;80;21197;-64
2021/04/03 01:16:48;;;;;;;4.58;3.72;;;;;;;15.75;50.62;99055.81;1728801;82;21394;-64
2021/04/03 01:19:49;;;;;;;6.05;3.85;;;;;;;15.73;50.62;99050.67;1726772;80;21156;-63
2021/04/03 01:22:39;;;;;;;5.08;3.35;;;;;;;15.72;50.64;99055.71;1742710;80;21153;-64
2021/04/03 01:25:31;;;;;;;4.67;4.03;;;;;;;15.70;50.64;99059.62;1733760;80;21158;-63
2021/04/03 01:28:54;;;;;;;5.03;3.65;;;;;;;15.67;50.64;99054.20;1713525;80;21622;-64
2021/04/03 01:31:23;;;;;;;4.50;3.85;;;;;;;15.65;50.62;99054.13;1721592;80;21389;-64
2021/04/03 01:33:51;;;;;;;5.78;3.58;;;;;;;15.61;50.68;99052.39;1723732;80;21226;-65
2021/04/03 01:36:21;;;;;;;5.78;4.40;;;;;;;15.60;50.71;99050.74;1714957;82;21220;-63
2021/04/03 01:39:07;;;;;;;3.72;3.37;;;;;;;15.61;50.68;99052.92;1708953;81;21572;-66
2021/04/03 01:41:37;;;;;;;4.50;3.70;;;;;;;15.59;50.64;99046.44;1709340;80;22097;-64
2021/04/03 01:44:05;;;;;;;5.37;3.77;;;;;;;15.59;50.66;99050.95;1717233;80;21162;-63
2021/04/03 01:46:35;;;;;;;5.25;3.80;;;;;;;15.59;50.62;99046.94;1714918;81;21191;-64
2021/04/03 01:49:10;;;;;;;3.92;3.47;;;;;;;15.59;50.66;99053.63;1717622;80;21134;-65
2021/04/03 01:51:42;;;;;;;4.83;3.80;;;;;;;15.59;50.60;99045.59;1718648;80;21659;-66
2021/04/03 01:54:12;;;;;;;4.78;3.80;;;;;;;15.57;50.56;99048.52;1728335;80;21606;-65
2021/04/03 01:56:43;;;;;;;5.15;4.15;;;;;;;15.57;50.60;99043.66;1708178;82;22300;-65
2021/04/03 01:59:15;;;;;;;3.95;3.55;;;;;;;15.56;50.51;99044.71;1684643;82;21268;-66
2021/04/03 02:01:44;;;;;;;4.78;3.58;;;;;;;15.57;50.52;99046.34;1695017;82;21135;-65
2021/04/03 02:04:15;;;;;;;3.77;3.02;;;;;;;15.56;50.47;99042.84;1710386;80;21182;-65
2021/04/03 02:06:44;;;;;;;4.83;4.15;;;;;;;15.56;50.49;99040.17;1730069;80;21179;-65
2021/04/03 02:09:15;;;;;;;5.10;3.70;;;;;;;15.55;50.44;99035.88;1714454;80;22218;-65
2021/04/03 02:11:50;;;;;;;3.98;3.50;;;;;;;15.54;50.46;99032.35;1721725;82;21187;-64
2021/04/03 02:14:37;;;;;;;3.67;3.27;;;;;;;15.55;50.41;99035.88;1707415;81;21556;-64
2021/04/03 02:17:07;;;;;;;4.67;4.03;;;;;;;15.53;50.41;99036.61;1723933;81;21187;-64
2021/04/03 02:19:36;;;;;;;5.47;4.42;;;;;;;15.52;50.42;99035.77;1714771;81;21156;-65
2021/04/03 02:22:05;;;;;;;4.87;3.77;;;;;;;15.51;50.36;99032.80;1712627;81;21397;-65
2021/04/03 02:24:33;;;;;;;5.22;4.40;;;;;;;15.51;50.37;99027.45;1722988;81;21163;-65
2021/04/03 02:27:03;;;;;;;5.30;4.15;;;;;;;15.51;50.32;99032.80;1707483;81;21147;-65
2021/04/03 02:29:32;;;;;;;4.53;3.92;;;;;;;15.51;50.33;99019.92;1711374;81;21133;-67
2021/04/03 02:32:00;;;;;;;4.55;3.90;;;;;;;15.49;50.30;99032.20;1706276;81;21151;-67
2021/04/03 02:34:28;;;;;;;4.67;4.17;;;;;;;15.49;50.31;99034.88;1708170;83;21630;-67
2021/04/03 02:36:57;;;;;;;4.30;3.70;;;;;;;15.49;50.35;99032.70;1712006;83;21218;-66
2021/04/03 02:39:27;;;;;;;4.85;3.70;;;;;;;15.48;50.26;99035.91;1697090;83;21203;-67
2021/04/03 02:42:16;;;;;;;4.53;3.58;;;;;;;15.47;50.26;99034.28;1710987;81;21192;-65
2021/04/03 02:44:51;;;;;;;4.47;3.83;;;;;;;15.45;50.25;99028.33;1701731;81;21191;-67
2021/04/03 02:47:29;;;;;;;4.22;3.47;;;;;;;15.44;50.27;99025.33;1708094;81;21389;-66
2021/04/03 02:50:02;;;;;;;5.15;3.98;;;;;;;15.42;50.32;99026.07;1699408;83;21218;-66
2021/04/03 02:52:32;;;;;;;5.10;4.08;;;;;;;15.43;50.28;99028.22;1703351;81;21194;-65
2021/04/03 02:55:06;;;;;;;8.03;4.27;;;;;;;15.41;50.30;99037.80;1684540;83;21812;-66
2021/04/03 02:57:35;;;;;;;5.90;4.40;;;;;;;15.40;50.26;99032.16;1715071;81;21153;-65
2021/04/03 03:00:11;;;;;;;5.00;3.87;;;;;;;15.40;50.25;99038.85;1714993;81;21425;-66
2021/04/03 03:02:39;;;;;;;4.65;3.90;;;;;;;15.39;50.24;99037.72;1698733;81;21655;-65
2021/04/03 03:05:11;;;;;;;4.17;3.12;;;;;;;15.38;50.23;99036.91;1706836;83;21218;-65
2021/04/03 03:07:45;;;;;;;4.90;3.95;;;;;;;15.38;50.21;99045.47;1695738;82;21197;-66
2021/04/03 03:10:15;;;;;;;4.40;3.45;;;;;;;15.37;50.21;99039.27;1713172;82;21139;-65
2021/04/03 03:12:49;;;;;;;4.45;3.83;;;;;;;15.36;50.20;99040.33;1713319;82;21359;-66
2021/04/03 03:15:19;;;;;;;;;;;;;;;15.36;50.19;99043.00;1721384;82;21924;-66
2021/04/03 03:17:47;;;;;;;4.58;3.67;;;;;;;15.35;50.20;99048.03;1706691;82;20274;-65
2021/04/03 03:20:17;;;;;;;4.28;3.40;;;;;;;15.27;50.27;99043.77;1729589;82;21203;-66
2021/04/03 03:22:47;;;;;;;4.87;3.87;;;;;;;15.27;50.27;99047.77;1733018;82;21156;-65
2021/04/03 03:25:14;;;;;;;4.35;3.15;;;;;;;15.28;50.24;99043.27;1722555;81;21417;-65
2021/04/03 03:27:47;;;;;;;4.05;3.50;;;;;;;15.28;50.19;99043.27;1718989;81;21636;-65
2021/04/03 03:30:18;;;;;;;4.47;3.72;;;;;;;15.27;50.17;99042.42;1716114;81;21156;-65
2021/04/03 03:32:47;;;;;;;4.70;3.45;;;;;;;15.28;50.20;99035.24;1705013;82;21175;-67
2021/04/03 03:35:15;;;;;;;4.60;3.95;;;;;;;15.27;50.13;99038.41;1713903;81;21188;-65
2021/04/03 03:37:45;;;;;;;4.37;3.37;;;;;;;15.27;50.11;99037.59;1705820;82;21402;-65
2021/04/03 03:40:17;;;;;;;4.87;3.10;;;;;;;15.27;50.12;99035.73;1716669;82;21173;-66
2021/04/03 03:42:45;;;;;;;4.15;3.42;;;;;;;15.26;50.07;99032.77;1732329;81;21184;-65
2021/04/03 03:45:15;;;;;;;4.50;3.80;;;;;;;15.26;50.08;99027.91;1715241;81;21256;-65
2021/04/03 03:47:46;;;;;;;4.17;3.75;;;;;;;15.26;50.06;99026.58;1677118;82;21216;-65
2021/04/03 03:50:16;;;;;;;4.60;3.33;;;;;;;15.26;50.05;99026.58;1707192;82;21378;-65
2021/04/03 03:52:45;;;;;;;4.37;3.62;;;;;;;15.25;50.04;99032.45;1714677;81;21208;-67
2021/04/03 03:55:15;;;;;;;4.12;3.58;;;;;;;15.25;50.02;99028.45;1726674;81;21133;-66
2021/04/03 03:57:44;;;;;;;4.20;3.65;;;;;;;15.26;50.01;99027.91;1706291;81;21224;-65
2021/04/03 04:00:16;;;;;;;5.60;3.87;;;;;;;15.25;50.00;99031.13;1718156;81;21636;-65
2021/04/03 04:02:43;;;;;;;4.47;3.58;;;;;;;15.27;50.01;99040.28;1728817;81;21326;-65
2021/04/03 04:05:15;;;;;;;4.42;3.50;;;;;;;15.26;49.93;99037.28;1730677;82;21140;-65
2021/04/03 04:07:44;;;;;;;5.85;4.17;;;;;;;15.26;49.98;99039.46;1716053;81;21224;-65
2021/04/03 04:10:14;;;;;;;5.00;4.40;;;;;;;15.26;49.95;99042.63;1723690;81;21180;-64
2021/04/03 04:12:43;;;;;;;5.15;3.70;;;;;;;15.26;49.99;99046.64;1725728;81;21180;-65
2021/04/03 04:15:13;;;;;;;4.47;3.72;;;;;;;15.26;49.94;99046.16;1731146;80;21769;-65
2021/04/03 04:17:43;;;;;;;5.87;4.30;;;;;;;15.27;50.00;99046.97;1730360;80;21158;-65
2021/04/03 04:20:13;;;;;;;5.10;4.17;;;;;;;15.28;49.99;99047.28;1730900;80;21196;-66
2021/04/03 04:22:43;;;;;;;4.47;3.83;;;;;;;15.27;49.94;99050.45;1725672;82;21130;-66
2021/04/03 04:25:13;;;;;;;4.72;3.62;;;;;;;15.27;49.98;99047.77;1711162;80;21138;-66
2021/04/03 04:27:43;;;;;;;5.30;4.33;;;;;;;15.28;49.96;99052.11;1722347;82;23531;-66
2021/04/03 04:30:12;;;;;;;4.30;3.65;;;;;;;15.29;49.93;99057.75;1736212;80;21191;-65
2021/04/03 04:32:43;;;;;;;5.10;4.35;;;;;;;15.29;49.92;99052.39;1730031;82;21189;-65
2021/04/03 04:35:15;;;;;;;5.45;3.72;;;;;;;15.30;49.96;99053.23;1723629;82;21139;-66
2021/04/03 04:37:45;;;;;;;5.30;4.10;;;;;;;15.30;50.00;99050.56;1714995;82;21587;-64
2021/04/03 04:40:15;;;;;;;5.58;3.90;;;;;;;15.30;49.88;99053.23;1721028;80;21857;-65
2021/04/03 04:42:43;;;;;;;5.10;3.92;;;;;;;15.31;49.90;99052.19;1734460;80;21568;-65
2021/04/03 04:45:14;;;;;;;4.72;3.47;;;;;;;15.30;49.92;99052.71;1718335;80;21138;-65
2021/04/03 04:47:42;;;;;;;5.33;3.87;;;;;;;15.31;49.83;99054.34;1716388;80;21638;-65
2021/04/03 04:50:12;;;;;;;4.37;3.45;;;;;;;15.32;49.82;99051.97;1728290;80;21214;-65
2021/04/03 04:52:39;;;;;;;5.37;3.60;;;;;;;15.31;49.81;99056.20;1725854;82;21417;-64
2021/04/03 04:55:11;;;;;;;4.40;3.75;;;;;;;15.31;49.76;99054.34;1736100;82;21598;-66
2021/04/03 04:57:41;;;;;;;5.10;3.62;;;;;;;15.32;49.90;99052.50;1701543;82;21151;-65
2021/04/03 05:00:12;;;;;;;4.95;3.83;;;;;;;15.32;49.94;99061.87;1716798;80;21234;-65
2021/04/03 05:02:41;;;;;;;4.28;3.67;;;;;;;15.32;49.89;99066.69;1727437;80;21167;-66
2021/04/03 05:05:09;;;;;;;4.72;3.50;;;;;;;15.33;49.87;99063.48;1729364;80;22911;-65
2021/04/03 05:07:37;;;;;;;4.15;3.67;;;;;;;15.35;49.77;99070.78;1734628;80;21159;-67
2021/04/03 05:10:05;;;;;;;4.35;3.50;;;;;;;15.35;49.78;99072.13;1736652;80;21171;-66
2021/04/03 05:12:33;;;;;;;4.75;3.70;;;;;;;15.36;49.72;99068.42;1724722;80;21138;-68
2021/04/03 05:15:01;;;;;;;4.90;3.75;;;;;;;15.38;49.72;99069.03;1724480;80;21183;-66
2021/04/03 05:17:30;;;;;;;4.33;3.25;;;;;;;15.39;49.73;99068.50;1726631;80;21393;-65
2021/04/03 05:19:57;;;;;;;4.45;3.30;;;;;;;15.38;49.76;99061.00;1731096;80;21189;-65
2021/04/03 05:22:24;;;;;;;4.37;3.40;;;;;;;15.40;49.54;99064.28;1727948;82;21119;-65
2021/04/03 05:24:52;;;;;;;4.17;3.65;;;;;;;15.42;49.63;99058.71;1709860;82;21606;-65
2021/04/03 05:27:19;;;;;;;4.10;3.47;;;;;;;15.42;49.60;99064.88;1757633;81;21502;-65
2021/04/03 05:29:46;;;;;;;4.85;3.40;;;;;;;15.44;49.41;99061.47;1749276;81;21444;-65
2021/04/03 05:32:14;;;;;;;4.30;3.58;;;;;;;15.45;49.46;99057.77;1730864;81;21556;-65
2021/04/03 05:34:41;;;;;;;4.62;3.22;;;;;;;15.46;49.40;99056.72;1746307;81;21163;-65
2021/04/03 05:37:11;;;;;;;4.47;3.40;;;;;;;15.47;49.38;99053.02;1728333;81;21221;-66
2021/04/03 05:39:40;;;;;;;4.60;3.60;;;;;;;15.50;49.34;99053.09;1738245;80;21194;-64
2021/04/03 05:42:08;;;;;;;4.20;3.47;;;;;;;15.50;49.34;99055.24;1739466;81;21334;-64
2021/04/03 05:44:36;;;;;;;4.80;3.95;;;;;;;15.51;49.29;99059.57;1726831;81;21257;-65
2021/04/03 05:47:04;;;;;;;5.17;3.60;;;;;;;15.54;49.25;99066.34;1744186;81;21171;-65
2021/04/03 05:49:31;;;;;;;3.40;3.00;;;;;;;15.54;49.26;99067.16;1743314;81;21161;-64
2021/04/03 05:52:03;;;;;;;3.90;3.40;;;;;;;15.57;49.39;99069.09;1748501;81;21116;-65
2021/04/03 05:54:31;;;;;;;5.28;3.87;;;;;;;15.60;49.34;99079.37;1721956;83;21348;-65
2021/04/03 05:56:58;;;;;;;3.95;3.55;;;;;;;15.61;49.38;99080.51;1734548;81;21634;-66
2021/04/03 05:59:26;;;;;;;4.65;3.55;;;;;;;15.64;49.48;99079.24;1727685;81;21152;-64
2021/04/03 06:01:53;;;;;;;5.10;3.42;;;;;;;15.67;49.33;99082.84;1731574;81;21123;-65
2021/04/03 06:04:20;;;;;;;4.62;3.70;;;;;;;15.70;49.24;99078.37;1726523;81;21605;-65
2021/04/03 06:06:48;;;;;;;5.17;3.80;;;;;;;15.71;49.31;99082.17;1740533;81;21433;-65
2021/04/03 06:09:16;;;;;;;4.95;3.30;;;;;;;15.74;49.22;99084.95;1742144;81;21087;-66
2021/04/03 06:11:46;;;;;;;3.90;3.47;;;;;;;15.77;49.08;99087.73;1745909;81;21630;-65
2021/04/03 06:14:14;;;;;;;4.55;3.45;;;;;;;15.79;49.12;99090.48;1730939;81;21190;-64
2021/04/03 06:16:44;;;;;;;4.53;3.60;;;;;;;15.81;48.98;99089.75;1746026;81;21152;-65
2021/04/03 06:19:25;;;;;;;4.70;3.47;;;;;;;15.84;49.01;99087.98;1768561;80;22350;-63
2021/04/03 06:21:57;;;;;;;4.08;3.40;;;;;;;15.86;48.92;99085.91;1719177;80;21201;-66
2021/04/03 06:24:35;;;;;;;4.10;2.85;;;;;;;15.90;48.92;99084.95;1721825;81;21216;-66
2021/04/03 06:27:13;;;;;;;3.90;3.33;;;;;;;15.90;48.84;99079.07;1731722;81;21176;-67
2021/04/03 06:29:49;;;;;;;4.85;3.83;;;;;;;15.91;48.87;99080.70;1735956;81;21168;-66
2021/04/03 06:32:27;;;;;;;5.10;3.60;;;;;;;15.93;48.75;99085.84;1712484;81;21369;-67
2021/04/03 06:34:55;;;;;;;4.58;3.40;;;;;;;15.95;48.68;99091.80;1738712;82;21638;-67
2021/04/03 06:37:35;;;;;;;3.55;3.25;;;;;;;15.95;48.63;99095.81;1760134;80;21562;-65
2021/04/03 06:40:08;;;;;;;4.17;3.27;;;;;;;15.96;48.71;99103.36;1721809;81;21179;-68
2021/04/03 06:42:55;;;;;;;4.30;3.37;;;;;;;15.98;48.59;99106.63;1710830;81;21171;-66
2021/04/03 06:45:33;;;;;;;3.62;3.02;;;;;;;15.99;48.56;99104.23;1724838;80;21385;-65
2021/04/03 06:48:07;;;;;;;4.17;3.25;;;;;;;15.99;48.51;99112.28;1728718;80;22186;-65
2021/04/03 06:50:41;;;;;;;4.12;3.52;;;;;;;16.01;48.47;99114.22;1727622;80;21179;-67
2021/04/03 06:53:15;;;;;;;4.28;3.40;;;;;;;16.03;48.06;99111.64;1734757;80;21150;-66
2021/04/03 06:55:48;;;;;;;4.15;3.40;;;;;;;16.05;47.94;99118.09;1731892;80;21174;-66
2021/04/03 06:58:15;;;;;;;;;;;;;;;16.08;47.90;99114.98;1735635;80;21204;-66
2021/04/03 07:00:44;;;;;;;4.08;3.40;;;;;;;16.10;47.89;99124.44;1730534;81;20223;-65
2021/04/03 07:05:59;;;;;;;4.65;3.52;;;;;;;16.15;48.00;99128.31;1810059;79;28335;-65
2021/04/03 07:08:27;;;;;;;2.92;2.55;;;;;;;16.15;47.98;99141.22;1762120;80;21153;-65
2021/04/03 07:10:54;;;;;;;4.20;3.10;;;;;;;16.19;47.97;99134.91;1787576;79;21730;-66
2021/04/03 07:13:22;;;;;;;4.08;3.20;;;;;;;16.23;47.92;99132.89;1805097;79;21132;-67
2021/04/03 07:15:52;;;;;;;4.00;3.58;;;;;;;16.28;47.89;99136.23;1781319;79;21208;-66
2021/04/03 07:18:21;;;;;;;4.12;3.10;;;;;;;16.31;47.81;99131.27;1790576;79;21569;-65
2021/04/03 07:20:48;;;;;;;4.05;3.12;;;;;;;16.36;47.91;99145.86;1802396;79;21121;-66
2021/04/03 07:23:16;;;;;;;4.37;3.35;;;;;;;16.40;47.81;99149.24;1754166;80;21474;-66
2021/04/03 07:25:44;;;;;;;3.87;3.30;;;;;;;16.45;47.82;99149.91;1778916;80;21585;-65
2021/04/03 07:28:14;;;;;;;3.90;3.00;;;;;;;16.49;47.86;99147.89;1775818;79;21195;-66
2021/04/03 07:30:44;;;;;;;5.42;3.58;;;;;;;16.55;47.80;99152.89;1780029;79;21144;-65
2021/04/03 07:33:20;;;;;;;4.55;3.20;;;;;;;16.59;47.80;99151.44;1784970;79;21506;-66
2021/04/03 07:35:52;;;;;;;3.47;3.08;;;;;;;16.62;47.78;99160.89;1762676;79;22196;-66
2021/04/03 07:38:23;;;;;;;4.10;3.33;;;;;;;16.65;47.80;99161.27;1762813;80;21607;-67
2021/04/03 07:40:58;;;;;;;4.53;3.40;;;;;;;16.68;47.81;99164.83;1762685;80;21163;-66
2021/04/03 07:43:40;;;;;;;4.72;2.83;;;;;;;16.70;47.69;99158.72;1771631;79;21167;-66
2021/04/03 07:46:13;;;;;;;4.60;3.20;;;;;;;16.74;47.61;99156.95;1766818;80;21576;-66
2021/04/03 07:48:59;;;;;;;3.62;2.85;;;;;;;16.77;47.68;99161.34;1773944;80;21376;-66
2021/04/03 07:51:41;;;;;;;3.62;2.83;;;;;;;16.81;47.81;99160.39;1770005;79;21139;-66
2021/04/03 07:54:28;;;;;;;3.85;3.00;;;;;;;16.84;47.61;99159.95;1784154;79;21127;-66
2021/04/03 07:57:02;;;;;;;3.77;3.10;;;;;;;16.88;47.72;99166.51;1783826;80;21162;-66
2021/04/03 07:59:54;;;;;;;4.10;3.10;;;;;;;16.92;47.69;99170.41;1784794;79;21141;-65
2021/04/03 08:02:24;;;;;;;3.33;2.80;;;;;;;16.88;47.75;99155.78;1764192;80;21206;-67
2021/04/03 08:04:51;;;;;;;3.72;3.08;;;;;;;16.98;47.73;99174.88;1762631;80;21576;-67
2021/04/03 08:07:21;;;;;;;3.33;2.92;;;;;;;17.02;47.85;99177.41;1746885;82;21708;-69
2021/04/03 08:09:48;;;;;;;3.87;2.98;;;;;;;17.06;47.76;99177.78;1746960;82;21181;-66
2021/04/03 08:12:16;;;;;;;3.58;2.90;;;;;;;17.11;47.75;99183.28;1746706;82;21167;-68
2021/04/03 08:14:44;;;;;;;3.77;3.05;;;;;;;17.16;47.80;99192.02;1742874;82;21394;-67
2021/04/03 08:17:19;;;;;;;3.75;2.87;;;;;;;17.19;47.74;99183.50;1741514;82;21216;-66
2021/04/03 08:19:48;;;;;;;3.92;3.08;;;;;;;17.24;47.57;99175.61;1741695;82;21607;-65
2021/04/03 08:22:17;;;;;;;4.00;3.10;;;;;;;17.28;47.56;99174.11;1704995;83;21161;-66
2021/04/03 08:24:56;;;;;;;3.20;2.77;;;;;;;17.33;47.62;99180.97;1715497;83;21188;-66
2021/04/03 08:27:34;;;;;;;4.05;2.95;;;;;;;17.36;47.80;99171.10;1711558;83;21365;-65
2021/04/03 08:30:56;;;;;;;3.42;2.60;;;;;;;17.47;47.67;99162.28;1807312;77;28332;-64
2021/04/03 08:33:32;;;;;;;3.33;2.33;;;;;;;17.44;47.52;99168.13;1769772;80;21188;-65
2021/04/03 08:36:00;;;;;;;4.33;2.90;;;;;;;17.49;47.38;99166.91;1783298;80;21376;-65
2021/04/03 08:38:27;;;;;;;3.15;2.20;;;;;;;17.53;47.17;99169.95;1791333;80;21205;-65
2021/04/03 08:40:56;;;;;;;3.25;2.83;;;;;;;17.59;47.05;99169.58;1758782;80;21188;-66
2021/04/03 08:43:27;;;;;;;3.12;2.55;;;;;;;17.62;46.95;99164.57;1784650;80;21549;-66
2021/04/03 08:46:06;;;;;;;3.67;2.80;;;;;;;17.67;46.78;99165.22;1792010;80;21092;-65
2021/04/03 08:48:36;;;;;;;3.08;2.58;;;;;;;17.71;46.58;99158.33;1790216;80;21492;-65
2021/04/03 08:51:05;;;;;;;3.00;2.42;;;;;;;17.74;46.51;99149.83;1788831;80;21152;-65
2021/04/03 08:53:48;;;;;;;3.15;2.72;;;;;;;17.80;46.45;99155.63;1790169;80;21169;-64
2021/04/03 08:56:34;;;;;;;4.45;2.62;;;;;;;17.85;46.45;99147.73;1783748;80;21163;-65
2021/04/03 08:59:06;;;;;;;5.58;2.77;;;;;;;17.91;46.48;99149.22;1779578;78;21327;-65
2021/04/03 09:01:37;;;;;;;2.77;2.40;;;;;;;17.97;46.67;99145.07;1792675;78;22095;-65
2021/04/03 09:04:09;;;;;;;3.10;2.52;;;;;;;18.02;46.73;99143.02;1743957;80;21176;-66
2021/04/03 09:06:52;;;;;;;4.10;2.50;;;;;;;18.09;46.62;99147.77;1775326;80;21200;-65
2021/04/03 09:12:12;;;;;;;6.40;2.70;;;;;;;18.25;46.34;99151.14;1793993;79;28475;-66
2021/04/03 09:14:43;;;;;;;3.58;2.92;;;;;;;18.26;46.41;99157.33;1738194;81;21138;-64
2021/04/03 09:17:21;;;;;;;2.70;2.33;;;;;;;18.31;46.40;99158.80;1779775;79;21363;-66
2021/04/03 09:19:48;;;;;;;2.50;1.90;;;;;;;18.37;46.53;99152.48;1773627;80;20996;-65
2021/04/03 09:22:20;;;;;;;2.40;2.20;;;;;;;18.42;46.60;99146.39;1754662;80;21063;-65
2021/04/03 09:24:56;;;;;;;2.47;2.22;;;;;;;18.47;46.53;99154.05;1749152;82;21103;-65
2021/04/03 09:27:25;;;;;;;2.90;2.55;;;;;;;18.53;46.68;99156.34;1723166;82;21011;-66
2021/04/03 09:30:05;;;;;;;2.83;2.22;;;;;;;18.59;46.67;99162.66;1751475;80;21391;-65
2021/04/03 09:32:29;;;;;;;2.87;2.30;;;;;;;18.63;46.92;99162.47;1748744;80;21623;-65
2021/04/03 09:35:06;;;;;;;3.05;2.42;;;;;;;18.67;46.78;99155.03;1695210;81;21627;-66
2021/04/03 09:37:33;;;;;;;2.47;2.25;;;;;;;18.72;46.80;99152.19;1781229;80;21666;-64
2021/04/03 09:40:01;;;;;;;3.22;2.30;;;;;;;18.76;46.67;99142.59;1757493;80;21171;-65
2021/04/03 09:42:30;;;;;;;2.55;2.20;;;;;;;18.81;46.83;99158.34;1759122;80;21378;-65
2021/04/03 09:44:58;;;;;;;2.83;2.20;;;;;;;18.86;47.06;99161.13;1764011;80;21608;-67
2021/04/03 09:47:28;;;;;;;2.25;1.98;;;;;;;18.91;47.16;99157.75;1774984;80;21104;-65
2021/04/03 09:49:55;;;;;;;2.37;2.17;;;;;;;18.97;47.27;99161.36;1744820;80;21143;-70
2021/04/03 09:52:24;;;;;;;2.70;2.27;;;;;;;19.02;47.21;99155.53;1757006;80;21140;-66
2021/04/03 09:54:51;;;;;;;2.20;1.82;;;;;;;19.08;47.23;99159.69;1754075;80;21357;-67
2021/04/03 09:57:20;;;;;;;2.37;2.10;;;;;;;19.14;47.39;99160.91;1748799;82;21168;-67
2021/04/03 09:59:47;;;;;;;2.12;1.90;;;;;;;19.22;47.33;99159.72;1756773;80;21142;-68
2021/04/03 10:02:16;;;;;;;2.55;1.90;;;;;;;19.29;46.97;99164.42;1771823;80;21192;-66
2021/04/03 10:04:43;;;;;;;2.12;1.82;;;;;;;19.35;47.07;99160.77;1774108;80;21151;-65
2021/04/03 10:07:10;;;;;;;2.92;2.12;;;;;;;19.44;47.51;99161.22;1776198;80;22139;-64
2021/04/03 10:09:38;;;;;;;3.27;1.80;;;;;;;19.50;47.40;99162.94;1777028;80;21174;-65
2021/04/03 10:12:08;;;;;;;2.45;1.90;;;;;;;19.58;47.40;99169.82;1772399;80;21175;-64
2021/04/03 10:14:37;;;;;;;2.83;1.90;;;;;;;19.65;47.03;99165.11;1751182;80;21186;-65
2021/04/03 10:17:10;;;;;;;3.42;2.27;;;;;;;19.72;47.33;99164.47;1744086;82;21460;-66
2021/04/03 10:19:38;;;;;;;2.58;2.10;;;;;;;19.80;47.56;99172.16;1728447;80;21211;-65
2021/04/03 10:22:06;;;;;;;2.05;1.75;;;;;;;19.88;47.68;99172.83;1744151;80;21775;-65
2021/04/03 10:24:34;;;;;;;2.87;2.08;;;;;;;19.97;47.98;99165.45;1740416;80;21155;-66
2021/04/03 10:27:02;;;;;;;2.17;1.75;;;;;;;20.07;48.30;99165.31;1760312;80;21579;-65
2021/04/03 10:29:29;;;;;;;2.37;1.77;;;;;;;20.19;48.18;99168.22;1752725;80;21167;-66
2021/04/03 10:31:57;;;;;;;2.15;1.95;;;;;;;20.29;48.01;99162.17;1734078;80;21378;-65
2021/04/03 10:34:24;;;;;;;2.05;1.85;;;;;;;20.39;47.75;99154.77;1742185;80;21187;-65
2021/04/03 10:36:51;;;;;;;2.42;2.00;;;;;;;20.50;47.71;99157.91;1753494;80;21568;-65
2021/04/03 10:39:18;;;;;;;2.87;2.22;;;;;;;20.61;47.52;99152.98;1751010;80;21561;-66
2021/04/03 10:41:46;;;;;;;2.27;1.92;;;;;;;20.72;47.21;99161.20;1735776;80;21201;-67
2021/04/03 10:44:13;;;;;;;2.08;1.87;;;;;;;20.81;46.86;99156.48;1741169;82;22816;-68
2021/04/03 10:46:40;;;;;;;2.00;1.90;;;;;;;20.91;46.70;99150.40;1748934;80;21240;-65
2021/04/03 10:49:08;;;;;;;2.20;1.92;;;;;;;21.00;46.54;99146.20;1738860;80;21194;-65
2021/04/03 10:51:35;;;;;;;2.02;1.60;;;;;;;21.09;46.26;99148.45;1748534;80;21152;-65
2021/04/03 10:54:03;;;;;;;1.72;1.62;;;;;;;21.17;45.89;99143.95;1745721;80;21628;-64
2021/04/03 10:56:30;;;;;;;2.00;1.80;;;;;;;21.29;45.70;99143.30;1744347;82;21386;-66
2021/04/03 10:58:58;;;;;;;1.92;1.70;;;;;;;21.43;45.42;99140.21;1747532;80;21167;-63
2021/04/03 11:01:26;;;;;;;2.98;2.20;;;;;;;21.62;45.21;99150.98;1754563;80;21120;-63
2021/04/03 11:03:54;;;;;;;5.42;2.67;;;;;;;21.86;42.77;99139.30;1727110;80;21165;-66
2021/04/03 11:06:27;;;;;;;5.12;2.58;;;;;;;22.11;41.15;99139.23;1727942;81;21184;-63
2021/04/03 11:09:05;;;;;;;3.17;1.70;;;;;;;22.39;40.02;99142.19;1725988;81;21452;-63
2021/04/03 11:11:37;;;;;;;2.02;1.82;;;;;;;22.67;38.94;99145.59;1744103;80;21212;-64
2021/04/03 11:14:09;;;;;;;3.98;2.22;;;;;;;22.91;38.02;99138.69;1682395;83;21193;-66
2021/04/03 11:16:47;;;;;;;2.98;1.65;;;;;;;23.03;37.40;99145.27;1700760;81;21236;-64
2021/04/03 11:19:19;;;;;;;2.55;1.65;;;;;;;23.16;35.91;99148.04;1704001;82;21602;-62
2021/04/03 11:21:47;;;;;;;2.27;1.80;;;;;;;23.22;34.30;99144.78;1746784;80;21219;-61
2021/04/03 11:24:14;;;;;;;1.75;1.50;;;;;;;23.24;33.43;99142.10;1740403;80;21233;-62
2021/04/03 11:26:42;;;;;;;2.62;1.50;;;;;;;23.24;33.27;99139.39;1747827;80;21197;-62
2021/04/03 11:29:09;;;;;;;2.22;1.50;;;;;;;23.25;32.77;99143.72;1746571;80;21199;-62
2021/04/03 11:31:38;;;;;;;5.42;1.98;;;;;;;23.35;32.09;99145.64;1741389;80;21170;-60
2021/04/03 11:34:05;;;;;;;7.30;2.60;;;;;;;23.51;34.52;99126.19;1757695;80;21210;-60
2021/04/03 11:36:34;;;;;;;10.10;2.85;;;;;;;23.81;37.46;99123.26;1749977;80;21178;-61
2021/04/03 11:39:04;;;;;;;5.20;2.83;;;;;;;24.19;38.79;99131.95;1740592;80;21181;-63
2021/04/03 11:41:31;;;;;;;8.90;3.22;;;;;;;24.59;39.04;99131.63;1735366;80;21184;-62
2021/04/03 11:43:59;;;;;;;11.20;2.77;;;;;;;25.01;39.33;99137.20;1745938;80;21596;-68
2021/04/03 11:46:26;;;;;;;6.75;2.75;;;;;;;25.45;39.08;99126.95;1754240;80;22859;-62
2021/04/03 11:48:55;;;;;;;9.75;2.45;;;;;;;25.86;39.16;99126.66;1754907;80;21178;-63
2021/04/03 11:51:22;;;;;;;5.80;2.12;;;;;;;26.27;38.85;99114.11;1746391;80;21199;-63
2021/04/03 11:53:50;;;;;;;5.62;2.20;;;;;;;26.65;38.13;99115.63;1738718;80;21631;-62
2021/04/03 11:56:17;;;;;;;6.35;1.72;;;;;;;27.02;37.74;99112.73;1743625;80;21124;-64
2021/04/03 11:58:46;;;;;;;3.85;1.77;;;;;;;27.37;37.30;99113.39;1750666;80;21410;-61